Time;durP1;ratioP1;P1;durP2;ratioP2;P2;SDS_P1;SDS_P2;PMS_P1;PMS_P2;Temp;Humidity;BMP_temperature;BMP_pressure;BME280_temperature;BME280_humidity;BME280_pressure;Samples;Min_cycle;Max_cycle;Signal;HPM_P1;HPM_P2
2023/08/20 00:01:06;;;;;;;11.40;6.85;;;589.10;2432.00;;;;;;4956996;28;20028;-78
2023/08/20 00:03:32;;;;;;;10.10;6.88;;;588.90;2432.00;;;;;;4957805;28;20032;-78
2023/08/20 00:05:58;;;;;;;9.63;7.05;;;589.00;2432.00;;;;;;4956144;29;20035;-78
2023/08/20 00:08:24;;;;;;;15.70;7.63;;;589.00;2432.00;;;;;;4956180;29;20058;-80
2023/08/20 00:10:50;;;;;;;9.88;6.63;;;589.10;2432.00;;;;;;4957637;28;20094;-78
2023/08/20 00:13:15;;;;;;;11.60;7.63;;;589.10;2432.00;;;;;;4956257;29;20028;-79
2023/08/20 00:15:41;;;;;;;11.32;7.47;;;589.10;2432.00;;;;;;4955827;29;20050;-79
2023/08/20 00:18:07;;;;;;;12.45;7.63;;;588.80;2432.00;;;;;;4955855;29;20364;-77
2023/08/20 00:20:34;;;;;;;14.50;7.45;;;589.10;2432.00;;;;;;4957097;29;20114;-78
2023/08/20 00:22:59;;;;;;;18.88;9.30;;;589.20;2432.00;;;;;;4956592;29;20039;-80
2023/08/20 00:25:25;;;;;;;10.65;7.53;;;588.80;2432.00;;;;;;4956214;29;20496;-79
2023/08/20 00:27:51;;;;;;;9.93;7.07;;;588.80;2432.00;;;;;;4957350;28;20028;-81
2023/08/20 00:30:17;;;;;;;10.35;6.90;;;588.80;2432.00;;;;;;4956191;29;20035;-79
2023/08/20 00:32:44;;;;;;;10.18;6.97;;;588.80;2432.00;;;;;;4957243;29;20048;-79
2023/08/20 00:35:10;;;;;;;8.27;6.43;;;588.80;2432.00;;;;;;4957387;28;20395;-80
2023/08/20 00:37:36;;;;;;;13.30;7.05;;;588.90;2432.00;;;;;;4957304;29;20034;-80
2023/08/20 00:40:05;;;;;;;8.75;6.70;;;564.10;2432.00;;;;;;4956121;29;20055;-80
2023/08/20 00:42:31;;;;;;;10.60;7.53;;;564.00;2432.00;;;;;;4955609;29;20031;-80
2023/08/20 00:44:57;;;;;;;10.05;7.10;;;564.10;2432.00;;;;;;4953838;29;20043;-80
2023/08/20 00:47:23;;;;;;;11.20;7.00;;;564.10;2432.00;;;;;;4952646;28;20036;-80
2023/08/20 00:49:49;;;;;;;8.55;6.20;;;564.10;2432.00;;;;;;4936216;29;20035;-79
2023/08/20 00:52:17;;;;;;;10.93;6.78;;;588.80;2432.00;;;;;;4936371;29;20447;-80
2023/08/20 00:54:48;;;;;;;8.80;6.93;;;588.80;2432.00;;;;;;4936515;29;20506;-80
2023/08/20 00:57:15;;;;;;;11.95;7.32;;;564.10;2432.00;;;;;;4936174;29;20034;-80
2023/08/20 00:59:43;;;;;;;9.68;7.35;;;563.70;2432.00;;;;;;4936519;29;20118;-79
2023/08/20 01:02:09;;;;;;;10.68;7.47;;;588.80;2432.00;;;;;;4936881;29;20436;-80
2023/08/20 01:04:35;;;;;;;13.40;7.38;;;564.00;2432.00;;;;;;4936018;29;20028;-80
2023/08/20 01:07:06;;;;;;;12.68;7.55;;;563.80;2432.00;;;;;;4936338;29;20031;-79
2023/08/20 01:09:48;;;;;;;10.90;7.07;;;563.90;2432.00;;;;;;4936120;29;20040;-80
2023/08/20 01:12:16;;;;;;;13.15;7.65;;;563.90;2432.00;;;;;;4935807;29;20273;-79
2023/08/20 01:14:42;;;;;;;9.98;7.13;;;563.60;2432.00;;;;;;4935813;29;20035;-79
2023/08/20 01:17:08;;;;;;;10.18;7.10;;;563.70;2432.00;;;;;;4936173;29;20058;-79
2023/08/20 01:19:34;;;;;;;11.93;6.68;;;563.80;2432.00;;;;;;4936021;29;20468;-80
2023/08/20 01:22:45;;;;;;;11.23;8.57;;;563.80;2432.00;;;;;;4936092;29;20511;-81
2023/08/20 01:25:34;;;;;;;14.35;6.68;;;563.90;2432.00;;;;;;4926191;29;20032;-82
2023/08/20 01:28:08;;;;;;;11.65;6.78;;;563.80;2432.00;;;;;;4935940;29;20035;-80
2023/08/20 01:30:34;;;;;;;11.02;6.63;;;563.80;2432.00;;;;;;4936884;29;20036;-80
2023/08/20 01:33:01;;;;;;;12.30;7.18;;;563.80;2432.00;;;;;;4935983;29;20028;-80
2023/08/20 01:35:27;;;;;;;7.78;6.30;;;563.80;2432.00;;;;;;4937062;29;20028;-80
2023/08/20 01:37:52;;;;;;;9.63;6.10;;;563.60;2432.00;;;;;;4936558;29;20026;-80
2023/08/20 01:40:18;;;;;;;12.48;6.47;;;563.60;2432.00;;;;;;4935837;29;20042;-80
2023/08/20 01:42:44;;;;;;;7.45;6.65;;;563.50;2432.00;;;;;;4936677;29;20027;-80
2023/08/20 01:45:10;;;;;;;7.93;6.00;;;563.50;2432.00;;;;;;4935502;29;20051;-80
2023/08/20 01:47:36;;;;;;;11.18;7.22;;;563.60;2432.00;;;;;;4937101;29;20472;-80
2023/08/20 01:50:02;;;;;;;10.57;6.72;;;563.60;2432.00;;;;;;4935644;29;20031;-80
2023/08/20 01:52:29;;;;;;;7.93;6.32;;;563.60;2432.00;;;;;;4934965;29;20087;-80
2023/08/20 01:54:55;;;;;;;9.88;6.85;;;563.60;2432.00;;;;;;4935494;29;20063;-80
2023/08/20 01:57:21;;;;;;;11.90;6.90;;;563.60;2432.00;;;;;;4935525;29;20069;-81
2023/08/20 01:59:47;;;;;;;12.27;7.05;;;563.60;2432.00;;;;;;4935297;29;20055;-81
2023/08/20 02:02:13;;;;;;;13.20;6.55;;;563.60;2432.00;;;;;;4935464;29;20032;-80
2023/08/20 02:04:39;;;;;;;8.32;6.97;;;563.70;2432.00;;;;;;4935497;29;20031;-80
2023/08/20 02:07:05;;;;;;;10.18;6.53;;;563.60;2432.00;;;;;;4935133;29;20063;-80
2023/08/20 02:09:31;;;;;;;9.30;7.25;;;563.70;2432.00;;;;;;4936245;29;20036;-80
2023/08/20 02:11:57;;;;;;;10.48;7.20;;;563.60;2432.00;;;;;;4935466;29;20028;-80
2023/08/20 02:14:23;;;;;;;10.57;6.93;;;563.70;2432.00;;;;;;4935019;29;20494;-80
2023/08/20 02:16:48;;;;;;;8.88;6.43;;;563.70;2432.00;;;;;;4936665;29;20119;-80
2023/08/20 02:19:14;;;;;;;10.23;6.53;;;563.60;2432.00;;;;;;4935441;29;20138;-80
2023/08/20 02:21:40;;;;;;;8.27;6.47;;;563.60;2432.00;;;;;;4951597;29;20039;-80
2023/08/20 02:24:06;;;;;;;9.00;6.45;;;563.70;2432.00;;;;;;4955453;28;20463;-79
2023/08/20 02:26:32;;;;;;;8.32;6.57;;;563.70;2432.00;;;;;;4959207;29;20028;-79
2023/08/20 02:29:01;;;;;;;9.75;6.80;;;563.70;2432.00;;;;;;4959239;29;20038;-79
2023/08/20 02:31:26;;;;;;;11.85;7.07;;;563.70;2432.00;;;;;;4974515;28;20490;-80
2023/08/20 02:33:53;;;;;;;10.93;7.05;;;563.50;2432.00;;;;;;4958056;29;20028;-80
2023/08/20 02:36:18;;;;;;;8.05;6.32;;;563.40;2432.00;;;;;;4958362;29;20111;-80
2023/08/20 02:38:46;;;;;;;8.98;6.30;;;563.50;2432.00;;;;;;4958248;29;20039;-80
2023/08/20 02:41:12;;;;;;;7.38;6.20;;;563.30;2432.00;;;;;;4973902;28;20050;-79
2023/08/20 02:43:38;;;;;;;7.70;6.30;;;563.50;2432.00;;;;;;4958288;29;20471;-80
2023/08/20 02:46:03;;;;;;;9.13;6.60;;;563.30;2432.00;;;;;;4959573;28;20023;-81
2023/08/20 02:48:30;;;;;;;10.02;6.65;;;563.40;2432.00;;;;;;4957682;29;20042;-80
2023/08/20 02:50:56;;;;;;;9.02;6.70;;;563.30;2432.00;;;;;;4973853;28;20102;-79
2023/08/20 02:53:22;;;;;;;7.68;6.53;;;563.30;2432.00;;;;;;4974146;28;20455;-80
2023/08/20 02:55:48;;;;;;;7.60;6.55;;;563.20;2432.00;;;;;;4957842;29;20423;-79
2023/08/20 02:58:14;;;;;;;8.43;6.68;;;563.20;2432.00;;;;;;4974113;28;20126;-80
2023/08/20 03:00:42;;;;;;;9.48;6.10;;;538.40;2406.40;;;;;;4973647;28;20447;-79
2023/08/20 03:03:09;;;;;;;9.35;6.90;;;538.40;2406.40;;;;;;4974044;28;20051;-80
2023/08/20 03:05:35;;;;;;;9.20;6.85;;;538.40;2406.40;;;;;;4957748;29;20035;-79
2023/08/20 03:08:03;;;;;;;9.93;6.72;;;538.50;2406.40;;;;;;4957739;29;20058;-79
2023/08/20 03:10:31;;;;;;;8.25;6.05;;;538.50;2406.40;;;;;;4956872;29;20039;-80
2023/08/20 03:12:56;;;;;;;7.50;6.63;;;538.50;2406.40;;;;;;4974033;28;20035;-80
2023/08/20 03:15:22;;;;;;;8.13;6.47;;;538.40;2406.40;;;;;;4957826;29;20441;-79
2023/08/20 03:17:48;;;;;;;11.30;6.93;;;538.40;2406.40;;;;;;4958480;29;20023;-80
2023/08/20 03:20:14;;;;;;;10.80;6.20;;;538.40;2406.40;;;;;;4977240;28;20034;-80
2023/08/20 03:22:40;;;;;;;9.02;6.10;;;538.50;2406.40;;;;;;4961675;29;20027;-79
2023/08/20 03:25:06;;;;;;;9.82;6.78;;;538.50;2406.40;;;;;;4960958;29;20032;-79
2023/08/20 03:27:32;;;;;;;8.85;6.22;;;538.50;2406.40;;;;;;4974778;28;20051;-80
2023/08/20 03:29:58;;;;;;;9.80;6.10;;;538.50;2406.40;;;;;;4956696;29;20086;-79
2023/08/20 03:32:24;;;;;;;11.55;7.15;;;563.20;2432.00;;;;;;4958453;28;20031;-80
2023/08/20 03:34:50;;;;;;;11.98;6.90;;;538.50;2406.40;;;;;;4957270;29;20455;-79
2023/08/20 03:37:16;;;;;;;13.15;7.47;;;538.40;2406.40;;;;;;4957187;28;20031;-79
2023/08/20 03:39:42;;;;;;;8.68;6.65;;;538.40;2406.40;;;;;;4957628;29;20061;-79
2023/08/20 03:42:08;;;;;;;9.18;6.88;;;538.50;2406.40;;;;;;4956940;29;20472;-79
2023/08/20 03:44:33;;;;;;;8.50;7.05;;;538.50;2406.40;;;;;;4956719;29;20038;-80
2023/08/20 03:46:59;;;;;;;11.18;6.78;;;538.50;2406.40;;;;;;4957028;29;20463;-80
2023/08/20 03:49:25;;;;;;;10.93;7.28;;;563.40;2432.00;;;;;;4956785;29;20101;-79
2023/08/20 03:51:51;;;;;;;8.75;6.80;;;538.50;2406.40;;;;;;4956015;29;20049;-80
2023/08/20 03:54:16;;;;;;;9.18;6.68;;;538.50;2406.40;;;;;;4956737;29;20082;-80
2023/08/20 03:56:42;;;;;;;11.63;6.80;;;538.50;2406.40;;;;;;4957690;28;20491;-80
2023/08/20 03:59:08;;;;;;;9.75;6.70;;;538.50;2406.40;;;;;;4956618;29;20035;-80
2023/08/20 04:01:36;;;;;;;18.13;7.75;;;538.50;2406.40;;;;;;4956610;29;20031;-79
2023/08/20 04:04:05;;;;;;;7.93;7.13;;;563.20;2432.00;;;;;;4957796;28;20023;-80
2023/08/20 04:06:31;;;;;;;8.45;6.93;;;563.20;2432.00;;;;;;4972277;28;20087;-80
2023/08/20 04:08:57;;;;;;;9.32;7.22;;;538.50;2406.40;;;;;;4956377;29;20116;-79
2023/08/20 04:11:23;;;;;;;9.52;6.60;;;538.50;2406.40;;;;;;4957412;28;20032;-79
2023/08/20 04:13:49;;;;;;;11.88;7.95;;;538.50;2406.40;;;;;;4956466;29;20031;-80
2023/08/20 04:16:15;;;;;;;12.20;7.43;;;538.30;2406.40;;;;;;4956365;29;20027;-80
2023/08/20 04:18:40;;;;;;;11.07;7.80;;;538.20;2406.40;;;;;;4957453;28;20063;-80
2023/08/20 04:21:07;;;;;;;14.32;8.48;;;538.20;2406.40;;;;;;4956306;29;20086;-79
2023/08/20 04:23:33;;;;;;;12.15;7.10;;;538.30;2406.40;;;;;;4957588;28;20023;-79
2023/08/20 04:25:58;;;;;;;11.77;6.80;;;538.30;2406.40;;;;;;4955915;29;20038;-79
2023/08/20 04:28:24;;;;;;;9.15;6.40;;;538.30;2406.40;;;;;;4956527;29;20447;-79
2023/08/20 04:30:54;;;;;;;11.25;6.63;;;538.40;2406.40;;;;;;4955944;29;20546;-79
2023/08/20 04:33:20;;;;;;;12.50;7.10;;;538.30;2406.40;;;;;;4971817;28;20118;-80
2023/08/20 04:35:46;;;;;;;9.48;6.38;;;538.40;2406.40;;;;;;4972224;28;20122;-79
2023/08/20 04:38:12;;;;;;;12.45;7.38;;;538.20;2406.40;;;;;;4972060;28;20030;-79
2023/08/20 04:40:38;;;;;;;9.35;7.75;;;538.20;2406.40;;;;;;4955732;29;20031;-79
2023/08/20 04:43:04;;;;;;;11.48;7.05;;;538.10;2406.40;;;;;;4956015;29;20118;-80
2023/08/20 04:45:30;;;;;;;7.88;6.53;;;538.00;2406.40;;;;;;4939962;29;20386;-79
2023/08/20 04:47:55;;;;;;;10.45;7.43;;;538.00;2406.40;;;;;;4955528;28;20023;-80
2023/08/20 04:50:21;;;;;;;11.00;7.68;;;538.00;2406.40;;;;;;4955667;29;20035;-79
2023/08/20 04:52:47;;;;;;;9.88;7.28;;;537.80;2406.40;;;;;;4955008;29;20082;-79
2023/08/20 04:55:15;;;;;;;9.55;6.72;;;538.00;2406.40;;;;;;4955423;29;20431;-79
2023/08/20 04:57:41;;;;;;;12.65;7.82;;;538.00;2406.40;;;;;;4955877;29;20031;-79
2023/08/20 05:00:07;;;;;;;12.25;7.55;;;538.00;2406.40;;;;;;4971625;28;20039;-78
2023/08/20 05:02:33;;;;;;;11.48;7.38;;;538.10;2406.40;;;;;;4956552;28;20510;-79
2023/08/20 05:04:59;;;;;;;9.85;8.32;;;538.20;2406.40;;;;;;4955617;29;20034;-79
2023/08/20 05:07:25;;;;;;;20.27;9.75;;;538.20;2406.40;;;;;;4955093;29;20372;-78
2023/08/20 05:09:50;;;;;;;17.10;9.82;;;538.20;2406.40;;;;;;4955421;29;20039;-80
2023/08/20 05:12:16;;;;;;;16.17;9.50;;;538.30;2406.40;;;;;;4956485;28;20027;-79
2023/08/20 05:14:42;;;;;;;12.38;9.40;;;538.40;2406.40;;;;;;4955886;29;20027;-79
2023/08/20 05:17:08;;;;;;;13.77;8.98;;;538.40;2406.40;;;;;;4955329;29;20059;-79
2023/08/20 05:19:33;;;;;;;14.80;8.50;;;538.50;2406.40;;;;;;4955251;29;20475;-79
2023/08/20 05:21:59;;;;;;;11.82;8.52;;;538.50;2406.40;;;;;;4956474;28;20023;-79
2023/08/20 05:24:25;;;;;;;10.35;8.35;;;538.50;2406.40;;;;;;4955136;29;20090;-79
2023/08/20 05:27:14;;;;;;;14.25;9.15;;;538.50;2406.40;;;;;;4955724;29;20098;-79
2023/08/20 05:29:40;;;;;;;13.05;9.23;;;538.50;2406.40;;;;;;4970877;28;20035;-79
2023/08/20 05:32:07;;;;;;;12.85;9.60;;;538.50;2406.40;;;;;;4955004;29;20038;-79
2023/08/20 05:34:33;;;;;;;11.95;9.52;;;538.50;2406.40;;;;;;4970989;28;20027;-79
2023/08/20 05:36:59;;;;;;;14.48;9.55;;;563.20;2432.00;;;;;;4954537;29;20123;-79
2023/08/20 05:39:25;;;;;;;14.20;10.13;;;563.20;2432.00;;;;;;4955454;29;20031;-79
2023/08/20 05:41:54;;;;;;;13.65;9.48;;;563.20;2432.00;;;;;;4956094;28;20534;-79
2023/08/20 05:44:21;;;;;;;18.85;10.93;;;563.30;2432.00;;;;;;4954536;29;20038;-78
2023/08/20 05:46:47;;;;;;;18.65;10.55;;;563.20;2432.00;;;;;;4954908;29;20034;-79
2023/08/20 05:49:15;;;;;;;14.88;10.23;;;563.60;2432.00;;;;;;4954619;29;20035;-79
2023/08/20 05:51:42;;;;;;;12.07;9.98;;;563.30;2432.00;;;;;;4955509;28;20392;-80
2023/08/20 05:54:08;;;;;;;12.55;9.90;;;563.50;2432.00;;;;;;4956095;28;20050;-78
2023/08/20 05:56:34;;;;;;;14.38;11.60;;;563.50;2432.00;;;;;;4954229;29;20387;-79
2023/08/20 05:59:00;;;;;;;15.15;9.73;;;563.50;2432.00;;;;;;4954248;28;20125;-79
2023/08/20 06:01:25;;;;;;;12.55;10.05;;;563.60;2432.00;;;;;;4954638;29;20027;-80
2023/08/20 06:03:51;;;;;;;11.95;9.88;;;563.80;2432.00;;;;;;4954283;29;20398;-79
2023/08/20 06:06:17;;;;;;;15.90;11.25;;;563.70;2432.00;;;;;;4954485;29;20039;-79
2023/08/20 06:08:43;;;;;;;13.35;9.57;;;563.60;2432.00;;;;;;4954757;29;20035;-79
2023/08/20 06:11:08;;;;;;;14.38;8.73;;;563.80;2432.00;;;;;;4954032;29;20035;-79
2023/08/20 06:13:34;;;;;;;11.95;8.05;;;563.80;2432.00;;;;;;4954462;29;20031;-81
2023/08/20 06:16:00;;;;;;;11.27;8.02;;;563.90;2432.00;;;;;;4955778;28;20058;-80
2023/08/20 06:18:26;;;;;;;9.40;8.10;;;564.10;2432.00;;;;;;4954120;29;20486;-80
2023/08/20 06:20:51;;;;;;;12.27;8.45;;;564.00;2432.00;;;;;;4954602;29;20129;-78
2023/08/20 06:23:17;;;;;;;12.57;8.70;;;564.10;2432.00;;;;;;4954418;29;20441;-79
2023/08/20 06:25:43;;;;;;;14.88;8.45;;;588.90;2432.00;;;;;;4954073;29;20027;-79
2023/08/20 06:28:09;;;;;;;13.55;8.82;;;;;;;;;;4954386;29;20098;-79
2023/08/20 06:30:35;;;;;;;11.07;8.00;;;589.30;2432.00;;;;;;4955611;29;20497;-79
2023/08/20 06:33:01;;;;;;;12.40;7.82;;;589.20;2432.00;;;;;;4955268;28;20027;-79
2023/08/20 06:35:27;;;;;;;9.48;7.75;;;589.20;2432.00;;;;;;4954260;29;20030;-80
2023/08/20 06:37:53;;;;;;;12.82;7.43;;;589.30;2432.00;;;;;;4954551;29;20031;-80
2023/08/20 06:40:19;;;;;;;13.07;8.05;;;589.50;2432.00;;;;;;4954030;29;20039;-80
2023/08/20 06:42:44;;;;;;;11.38;8.00;;;589.70;2432.00;;;;;;4955581;28;20027;-80
2023/08/20 06:45:10;;;;;;;12.25;8.15;;;614.50;2432.00;;;;;;4954301;29;20031;-80
2023/08/20 06:47:36;;;;;;;11.32;7.65;;;614.80;2432.00;;;;;;4953695;29;20032;-80
2023/08/20 06:50:03;;;;;;;11.77;8.32;;;614.80;2432.00;;;;;;4953995;29;20118;-80
2023/08/20 06:52:29;;;;;;;10.02;7.15;;;;;;;;;;4953417;29;20047;-81
2023/08/20 06:54:54;;;;;;;12.38;6.88;;;615.10;2432.00;;;;;;4955360;29;20034;-81
2023/08/20 06:57:20;;;;;;;17.35;7.20;;;615.00;2432.00;;;;;;4954241;29;20027;-81
2023/08/20 06:59:46;;;;;;;12.52;7.82;;;615.10;2432.00;;;;;;4953807;29;20031;-82
2023/08/20 07:02:12;;;;;;;10.50;7.20;;;615.10;2432.00;;;;;;4956511;28;20027;-79
2023/08/20 07:04:37;;;;;;;9.77;7.18;;;615.20;2432.00;;;;;;4957156;29;20023;-80
2023/08/20 07:07:07;;;;;;;12.43;6.85;;;615.30;2432.00;;;;;;4954826;29;20131;-81
2023/08/20 07:09:33;;;;;;;14.18;9.68;;;615.30;2432.00;;;;;;4954076;29;20387;-81
2023/08/20 07:11:59;;;;;;;12.07;8.38;;;640.00;2432.00;;;;;;4957451;28;20452;-81
2023/08/20 07:14:25;;;;;;;9.82;7.65;;;640.00;2432.00;;;;;;4959133;28;20039;-82
2023/08/20 07:16:51;;;;;;;13.05;7.43;;;640.10;2432.00;;;;;;4957712;29;20069;-81
2023/08/20 07:19:17;;;;;;;10.73;6.95;;;640.10;2432.00;;;;;;4957538;29;20391;-81
2023/08/20 07:21:42;;;;;;;10.98;7.85;;;640.20;2432.00;;;;;;4957303;29;20077;-82
2023/08/20 07:24:08;;;;;;;13.05;8.85;;;640.20;2432.00;;;;;;4957775;29;20062;-81
2023/08/20 07:26:34;;;;;;;14.13;8.35;;;;;;;;;;4957983;29;20079;-81
2023/08/20 07:29:00;;;;;;;10.73;8.77;;;;;;;;;;4957267;29;20024;-82
2023/08/20 07:31:27;;;;;;;11.52;8.63;;;;;;;;;;4957311;29;20023;-82
2023/08/20 07:33:55;;;;;;;9.52;7.45;;;;;;;;;;4957287;29;20050;-81
2023/08/20 07:36:21;;;;;;;9.50;6.55;;;;;;;;;;4956861;29;20023;-81
2023/08/20 07:38:48;;;;;;;7.57;6.20;;;;;;;;;;4957155;29;20019;-80
2023/08/20 07:41:14;;;;;;;8.15;6.32;;;691.20;2432.00;;;;;;4957501;29;20054;-82
2023/08/20 07:43:40;;;;;;;13.10;6.60;;;666.50;2432.00;;;;;;4972838;28;20074;-81
2023/08/20 07:46:07;;;;;;;10.38;6.38;;;691.20;2432.00;;;;;;4973077;28;20028;-79
2023/08/20 07:48:34;;;;;;;9.38;5.80;;;691.40;2432.00;;;;;;4957641;28;20059;-80
2023/08/20 07:51:00;;;;;;;8.10;5.55;;;691.40;2432.00;;;;;;4957882;28;20038;-80
2023/08/20 07:53:26;;;;;;;13.15;5.80;;;691.60;2432.00;;;;;;4972524;28;20399;-80
2023/08/20 07:55:52;;;;;;;11.00;5.85;;;691.60;2432.00;;;;;;4956546;29;20035;-80
2023/08/20 07:58:18;;;;;;;11.10;6.50;;;691.70;2432.00;;;;;;4956754;29;20027;-80
2023/08/20 08:00:44;;;;;;;10.52;6.28;;;691.80;2432.00;;;;;;4956753;29;20031;-80
2023/08/20 08:03:09;;;;;;;7.25;5.65;;;691.90;2432.00;;;;;;4957623;28;20150;-80
2023/08/20 08:05:36;;;;;;;8.77;5.97;;;692.00;2432.00;;;;;;4956626;29;20114;-80
2023/08/20 08:08:02;;;;;;;10.40;6.50;;;692.10;2432.00;;;;;;4972763;28;20027;-81
2023/08/20 08:10:28;;;;;;;11.77;6.22;;;716.90;2432.00;;;;;;4972205;28;20039;-80
2023/08/20 08:12:54;;;;;;;9.65;6.05;;;717.00;2432.00;;;;;;4972582;28;20031;-80
2023/08/20 08:15:22;;;;;;;9.88;5.70;;;717.10;2432.00;;;;;;4956746;29;20435;-80
2023/08/20 08:17:47;;;;;;;9.82;5.75;;;717.20;2432.00;;;;;;4972311;28;20027;-80
2023/08/20 08:20:13;;;;;;;7.65;6.20;;;717.20;2432.00;;;;;;4957236;29;20038;-80
2023/08/20 08:22:39;;;;;;;8.48;5.90;;;717.40;2432.00;;;;;;4956012;28;20463;-82
2023/08/20 08:25:05;;;;;;;11.00;5.93;;;717.60;2432.00;;;;;;4972106;28;20468;-81
2023/08/20 08:27:31;;;;;;;8.75;5.90;;;717.70;2432.00;;;;;;4957696;28;20034;-81
2023/08/20 08:29:57;;;;;;;9.15;6.30;;;717.60;2432.00;;;;;;4956117;29;20042;-81
2023/08/20 08:32:23;;;;;;;10.02;5.95;;;717.60;2432.00;;;;;;4955916;29;20031;-80
2023/08/20 08:34:49;;;;;;;9.23;5.88;;;742.40;2432.00;;;;;;4957338;28;20118;-79
2023/08/20 08:37:15;;;;;;;9.70;6.15;;;742.70;2432.00;;;;;;4972094;28;20375;-80
2023/08/20 08:39:41;;;;;;;8.98;5.68;;;742.80;2432.00;;;;;;4955859;29;20031;-81
2023/08/20 08:42:10;;;;;;;10.40;6.15;;;742.70;2432.00;;;;;;4957488;28;20032;-82
2023/08/20 08:44:37;;;;;;;9.50;5.85;;;742.80;2432.00;;;;;;4972236;28;20039;-81
2023/08/20 08:47:04;;;;;;;11.68;5.82;;;743.00;2432.00;;;;;;4972251;28;20042;-81
2023/08/20 08:49:33;;;;;;;9.93;5.13;;;743.30;2432.00;;;;;;4971898;28;20403;-81
2023/08/20 08:52:00;;;;;;;9.55;5.72;;;;;;;;;;4971438;28;20050;-81
2023/08/20 08:54:27;;;;;;;11.00;5.88;;;;;;;;;;4955869;29;20028;-81
2023/08/20 08:56:53;;;;;;;12.50;5.38;;;;;;;;;;4955868;29;20026;-80
2023/08/20 08:59:19;;;;;;;11.48;6.03;;;;;;;;;;4955409;29;20094;-81
2023/08/20 09:01:45;;;;;;;9.45;5.40;;;;;;;;;;4956509;29;20094;-81
2023/08/20 09:04:12;;;;;;;10.57;5.20;;;;;;;;;;4955566;29;20463;-81
2023/08/20 09:06:52;;;;;;;9.23;6.60;;;768.60;2329.60;;;;;;4955349;29;20030;-82
2023/08/20 09:09:18;;;;;;;10.25;6.63;;;;;;;;;;4971627;28;20027;-82
2023/08/20 09:11:45;;;;;;;10.23;6.22;;;;;;;;;;4946782;29;20027;-82
2023/08/20 09:14:24;;;;;;;6.47;4.85;;;;;;;;;;4953460;29;20034;-83
2023/08/20 09:17:00;;;;;;;7.22;5.45;;;;;;;;;;4955490;29;20518;-83
2023/08/20 09:19:30;;;;;;;8.02;5.63;;;;;;;;;;4956308;29;20027;-83
2023/08/20 09:21:58;;;;;;;9.20;6.25;;;794.00;2201.60;;;;;;4955429;29;20454;-80
2023/08/20 09:24:42;;;;;;;13.10;6.00;;;;;;;;;;4955848;29;20050;-81
2023/08/20 09:27:08;;;;;;;7.80;5.40;;;794.50;2124.80;;;;;;4956345;28;20456;-82
2023/08/20 09:29:54;;;;;;;11.52;6.57;;;794.40;2150.40;;;;;;4955291;29;20109;-83
2023/08/20 09:32:25;;;;;;;6.75;5.07;;;794.40;2150.40;;;;;;4954541;29;20031;-83
2023/08/20 09:34:53;;;;;;;10.43;5.28;;;794.50;2099.20;;;;;;4954093;28;20114;-83
2023/08/20 09:37:21;;;;;;;11.55;5.82;;;794.50;2124.80;;;;;;4956653;29;20059;-83
2023/08/20 09:39:47;;;;;;;7.07;5.05;;;819.30;2099.20;;;;;;4955008;29;20031;-82
2023/08/20 09:42:14;;;;;;;5.78;4.80;;;819.30;2124.80;;;;;;4944018;29;20087;-82
2023/08/20 09:44:42;;;;;;;10.95;5.90;;;819.60;2073.60;;;;;;4937030;29;20447;-82
2023/08/20 09:47:14;;;;;;;7.82;5.30;;;819.70;2073.60;;;;;;4935905;29;20027;-82
2023/08/20 09:49:40;;;;;;;10.35;5.68;;;819.60;2073.60;;;;;;4935530;29;20035;-82
2023/08/20 09:52:09;;;;;;;8.52;5.50;;;819.40;2073.60;;;;;;4935802;29;20043;-84
2023/08/20 09:54:55;;;;;;;8.27;5.45;;;819.30;2073.60;;;;;;4935284;29;20475;-82
2023/08/20 09:57:32;;;;;;;12.43;5.70;;;819.30;2099.20;;;;;;4934450;29;20043;-83
2023/08/20 10:00:00;;;;;;;10.10;5.75;;;819.30;2099.20;;;;;;4936942;29;20027;-82
2023/08/20 10:02:26;;;;;;;8.85;5.78;;;819.60;2073.60;;;;;;4935026;29;20031;-82
2023/08/20 10:04:52;;;;;;;6.50;4.53;;;819.70;2073.60;;;;;;4936437;29;20102;-82
2023/08/20 10:07:18;;;;;;;8.52;5.97;;;819.70;2048.00;;;;;;4935329;29;20082;-82
2023/08/20 10:09:45;;;;;;;9.32;5.40;;;819.80;2048.00;;;;;;4935379;29;20039;-83
2023/08/20 10:12:14;;;;;;;14.57;5.07;;;819.70;2048.00;;;;;;4936149;29;20031;-82
2023/08/20 10:14:41;;;;;;;10.07;5.40;;;;;;;;;;4935670;29;20119;-82
2023/08/20 10:17:10;;;;;;;15.73;5.05;;;;;;;;;;4935065;29;20365;-82
2023/08/20 10:19:37;;;;;;;8.32;5.32;;;;;;;;;;4935087;29;20027;-83
2023/08/20 10:22:04;;;;;;;17.90;7.82;;;;;;;;;;4935258;29;20074;-82
2023/08/20 10:24:40;;;;;;;10.32;7.80;;;;;;;;;;4934889;29;20051;-80
2023/08/20 10:27:10;;;;;;;10.38;5.90;;;;;;;;;;4935351;29;20486;-81
2023/08/20 10:29:38;;;;;;;10.10;5.38;;;870.40;1945.60;;;;;;4934819;29;20127;-81
2023/08/20 10:32:06;;;;;;;10.13;5.07;;;870.50;1971.20;;;;;;4935245;29;20079;-79
2023/08/20 10:34:35;;;;;;;6.43;4.97;;;870.50;1920.00;;;;;;4935658;29;20036;-80
2023/08/20 10:37:15;;;;;;;8.85;5.10;;;870.50;1971.20;;;;;;4934894;29;20038;-80
2023/08/20 10:39:42;;;;;;;7.68;4.90;;;870.70;1945.60;;;;;;4935688;29;20481;-81
2023/08/20 10:42:22;;;;;;;7.18;4.97;;;870.80;1945.60;;;;;;4935612;29;20036;-80
2023/08/20 10:45:08;;;;;;;10.18;4.75;;;871.00;1945.60;;;;;;4935263;29;20028;-80
2023/08/20 10:47:47;;;;;;;6.45;5.30;;;871.20;1920.00;;;;;;4939444;29;20024;-81
2023/08/20 10:50:16;;;;;;;9.30;5.05;;;896.00;1920.00;;;;;;4938868;29;20091;-80
2023/08/20 10:52:54;;;;;;;13.27;7.72;;;896.60;1920.00;;;;;;4938584;29;20044;-81
2023/08/20 10:55:23;;;;;;;8.88;6.32;;;;;;;;;;4938777;29;20058;-81
2023/08/20 10:57:57;;;;;;;11.10;5.22;;;;;;;;;;4938822;29;20336;-80
2023/08/20 11:00:23;;;;;;;7.32;4.57;;;;;;;;;;4940116;29;20032;-80
2023/08/20 11:02:50;;;;;;;8.13;5.20;;;;;;;;;;4939117;29;20024;-80
2023/08/20 11:05:17;;;;;;;10.00;5.30;;;;;;;;;;4939203;29;20369;-81
2023/08/20 11:07:46;;;;;;;11.85;5.30;;;;;;;;;;4939102;29;20376;-80
2023/08/20 11:10:14;;;;;;;8.07;5.00;;;;;;;;;;4939319;29;20075;-81
2023/08/20 11:12:40;;;;;;;5.97;4.68;;;;;;;;;;4938257;29;20030;-80
2023/08/20 11:15:06;;;;;;;10.45;5.40;;;;;;;;;;4938531;29;20024;-80
2023/08/20 11:17:32;;;;;;;11.23;5.20;;;;;;;;;;4938874;29;20043;-80
2023/08/20 11:19:58;;;;;;;6.90;5.18;;;;;;;;;;4938250;29;20123;-80
2023/08/20 11:22:24;;;;;;;7.55;4.80;;;;;;;;;;4938281;29;20016;-80
2023/08/20 11:24:50;;;;;;;9.90;5.43;;;;;;;;;;4938483;29;20046;-80
2023/08/20 11:27:17;;;;;;;10.48;5.57;;;;;;;;;;4938107;29;20388;-80
2023/08/20 11:29:43;;;;;;;6.20;5.03;;;;;;;;;;4939337;29;20031;-80
2023/08/20 11:32:10;;;;;;;9.48;5.45;;;;;;;;;;4942494;29;20031;-78
2023/08/20 11:34:38;;;;;;;7.15;4.80;;;;;;;;;;4942683;29;20129;-78
2023/08/20 11:37:05;;;;;;;7.13;5.50;;;;;;;;;;4939291;29;20023;-80
2023/08/20 11:39:31;;;;;;;12.35;5.20;;;;;;;;;;4937511;29;20040;-81
2023/08/20 11:41:59;;;;;;;8.63;5.63;;;;;;;;;;4938191;29;20116;-81
2023/08/20 11:44:26;;;;;;;8.13;5.45;;;;;;;;;;4937776;29;20083;-80
2023/08/20 11:46:52;;;;;;;10.73;5.35;;;;;;;;;;4938070;29;20443;-81
2023/08/20 11:49:27;;;;;;;6.75;5.30;;;;;;;;;;4937622;29;20083;-81
2023/08/20 11:51:53;;;;;;;7.28;5.13;;;;;;;;;;4939157;29;20030;-80
2023/08/20 11:54:19;;;;;;;7.05;4.90;;;;;;;;;;4938604;29;20028;-81
2023/08/20 11:56:49;;;;;;;9.95;5.20;;;;;;;;;;4937177;29;20427;-81
2023/08/20 11:59:16;;;;;;;8.25;5.63;;;;;;;;;;4938126;29;20035;-81
2023/08/20 12:01:43;;;;;;;9.45;5.07;;;;;;;;;;4937546;29;20046;-81
2023/08/20 12:04:10;;;;;;;6.25;4.55;;;;;;;;;;4937512;29;20476;-80
2023/08/20 12:06:37;;;;;;;6.13;5.00;;;;;;;;;;4937748;29;20031;-81
2023/08/20 12:09:20;;;;;;;8.82;5.05;;;;;;;;;;4937092;29;20071;-81
2023/08/20 12:11:50;;;;;;;7.53;5.32;;;;;;;;;;4937540;29;20035;-81
2023/08/20 12:14:17;;;;;;;8.00;5.00;;;;;;;;;;4937172;29;20028;-80
2023/08/20 12:16:43;;;;;;;10.13;5.55;;;;;;;;;;4937153;29;20020;-83
2023/08/20 12:19:09;;;;;;;7.38;4.40;;;;;;;;;;4937760;29;20452;-81
2023/08/20 12:21:35;;;;;;;8.13;5.05;;;;;;;;;;4936929;29;20595;-81
2023/08/20 12:24:01;;;;;;;11.73;4.68;;;;;;;;;;4937272;29;20480;-82
2023/08/20 12:26:27;;;;;;;7.22;5.00;;;;;;;;;;4938688;29;20035;-81
2023/08/20 12:28:54;;;;;;;9.50;5.30;;;;;;;;;;4936900;29;20032;-82
2023/08/20 12:31:20;;;;;;;9.52;5.50;;;;;;;;;;4938655;29;20028;-82
2023/08/20 12:33:47;;;;;;;9.20;5.00;;;;;;;;;;4937573;29;20353;-83
2023/08/20 12:36:13;;;;;;;6.88;4.90;;;;;;;;;;4936733;29;20031;-83
2023/08/20 12:38:41;;;;;;;13.18;5.68;;;;;;;;;;4937112;29;20059;-82
2023/08/20 12:41:07;;;;;;;8.55;6.05;;;947.60;1817.60;;;;;;4938355;29;20479;-83